Time;durP1;ratioP1;P1;durP2;ratioP2;P2;SDS_P1;SDS_P2;PMS_P1;PMS_P2;Temp;Humidity;BMP_temperature;BMP_pressure;BME280_temperature;BME280_humidity;BME280_pressure;Samples;Min_cycle;Max_cycle;Signal;HPM_P1;HPM_P2
2023/06/12 00:00:53;;;;;;;7.00;6.38;;;;;;;;;;5121648;28;20257;-63
2023/06/12 00:03:21;;;;;;;6.85;6.35;;;;;;;;;;5121711;28;20291;-63
2023/06/12 00:05:48;;;;;;;6.72;6.18;;;;;;;;;;5121765;28;20203;-63
2023/06/12 00:08:19;;;;;;;6.55;6.03;;;;;;;;;;5121297;28;20209;-63
2023/06/12 00:10:47;;;;;;;6.75;6.25;;;;;;;;;;5121937;28;20594;-63
2023/06/12 00:13:15;;;;;;;6.85;6.32;;;;;;;;;;5121468;28;20598;-63
2023/06/12 00:15:43;;;;;;;7.20;6.60;;;;;;;;;;5121497;28;20523;-63
2023/06/12 00:18:12;;;;;;;6.80;6.20;;;;;;;;;;5121389;28;20508;-63
2023/06/12 00:20:39;;;;;;;6.90;6.40;;;;;;;;;;5121562;28;20203;-63
2023/06/12 00:23:07;;;;;;;7.10;6.50;;;;;;;;;;5121395;28;20210;-63
2023/06/12 00:25:36;;;;;;;6.97;6.47;;;;;;;;;;5121151;28;20579;-63
2023/06/12 00:28:04;;;;;;;6.82;6.22;;;;;;;;;;5121358;28;20242;-63
2023/06/12 00:30:31;;;;;;;6.75;6.25;;;;;;;;;;5120620;28;20203;-66
2023/06/12 00:32:59;;;;;;;6.93;6.43;;;;;;;;;;5120868;28;20318;-63
2023/06/12 00:35:26;;;;;;;6.88;6.38;;;;;;;;;;5120915;28;20209;-63
2023/06/12 00:37:55;;;;;;;7.32;6.63;;;;;;;;;;5120833;28;20226;-63
2023/06/12 00:40:22;;;;;;;6.82;6.22;;;;;;;;;;5121115;28;20209;-63
2023/06/12 00:42:52;;;;;;;6.68;6.18;;;;;;;;;;5120821;28;20199;-63
2023/06/12 00:45:21;;;;;;;7.07;6.47;;;;;;;;;;5120699;28;20281;-64
2023/06/12 00:47:50;;;;;;;6.82;6.32;;;;;;;;;;5121044;28;20453;-63
2023/06/12 00:50:17;;;;;;;6.60;6.10;;;;;;;;;;5120968;28;20203;-63
2023/06/12 00:52:46;;;;;;;7.05;6.38;;;;;;;;;;5120472;28;20591;-63
2023/06/12 00:55:14;;;;;;;6.75;6.25;;;;;;;;;;5120779;28;20202;-64
2023/06/12 00:57:42;;;;;;;7.00;6.40;;;;;;;;;;5120434;28;20214;-63
2023/06/12 01:00:12;;;;;;;7.45;6.80;;;;;;;;;;5120546;28;20634;-63
2023/06/12 01:02:42;;;;;;;6.93;6.32;;;;;;;;;;5120458;28;20207;-63
2023/06/12 01:05:11;;;;;;;6.28;5.82;;;;;;;;;;5120442;28;20263;-63
2023/06/12 01:07:41;;;;;;;7.35;6.07;;;;;;;;;;5120497;28;20253;-63
2023/06/12 01:10:12;;;;;;;6.57;6.07;;;;;;;;;;5120590;28;20203;-63
2023/06/12 01:12:40;;;;;;;6.18;5.78;;;;;;;;;;5120071;28;20231;-63
2023/06/12 01:15:08;;;;;;;6.40;6.00;;;;;;;;;;5120078;28;20199;-63
2023/06/12 01:17:40;;;;;;;7.50;6.85;;;;;;;;;;5120359;28;20229;-63
2023/06/12 01:20:10;;;;;;;7.10;6.60;;;;;;;;;;5120435;28;20211;-63
2023/06/12 01:22:42;;;;;;;6.93;6.43;;;;;;;;;;5120175;28;20199;-63
2023/06/12 01:25:25;;;;;;;7.03;6.53;;;;;;;;;;5119941;28;20217;-63
2023/06/12 01:27:59;;;;;;;6.97;6.40;;;;;;;;;;5119923;28;20558;-63
2023/06/12 01:30:43;;;;;;;6.45;5.95;;;;;;;;;;5119899;28;20594;-63
2023/06/12 01:33:17;;;;;;;6.85;6.25;;;;;;;;;;5119865;28;20254;-63
2023/06/12 01:35:46;;;;;;;7.05;6.45;;;;;;;;;;5119901;28;20203;-63
2023/06/12 01:38:16;;;;;;;6.95;6.35;;;;;;;;;;5119560;28;20203;-63
2023/06/12 01:40:46;;;;;;;6.93;6.43;;;;;;;;;;5119895;28;20636;-63
2023/06/12 01:43:14;;;;;;;6.80;6.30;;;;;;;;;;5119728;28;20253;-63
2023/06/12 01:45:42;;;;;;;8.30;6.45;;;;;;;;;;5119661;28;20672;-63
2023/06/12 01:48:10;;;;;;;6.85;6.25;;;;;;;;;;5119740;28;20199;-63
2023/06/12 01:50:39;;;;;;;6.88;6.30;;;;;;;;;;5118752;27;20216;-63
2023/06/12 01:53:07;;;;;;;6.55;6.15;;;;;;;;;;5118965;28;20330;-63
2023/06/12 01:55:36;;;;;;;6.88;6.38;;;;;;;;;;5119800;28;20203;-63
2023/06/12 01:58:03;;;;;;;6.80;6.30;;;;;;;;;;5119840;28;20211;-63
2023/06/12 02:00:32;;;;;;;6.78;6.28;;;;;;;;;;5119479;28;20597;-63
2023/06/12 02:03:01;;;;;;;6.72;6.15;;;;;;;;;;5118964;28;20207;-63
2023/06/12 02:05:28;;;;;;;6.72;6.22;;;;;;;;;;5119416;28;20652;-63
2023/06/12 02:07:57;;;;;;;6.05;5.65;;;;;;;;;;5119115;28;20301;-63
2023/06/12 02:10:25;;;;;;;6.53;6.03;;;;;;;;;;5119033;28;20206;-63
2023/06/12 02:12:52;;;;;;;7.07;6.47;;;;;;;;;;5118558;28;20227;-63
2023/06/12 02:15:21;;;;;;;6.63;6.13;;;;;;;;;;5118809;28;20209;-63
2023/06/12 02:17:48;;;;;;;6.40;5.90;;;;;;;;;;5118707;28;20575;-63
2023/06/12 02:20:15;;;;;;;6.65;6.10;;;;;;;;;;5119481;27;20268;-62
2023/06/12 02:22:43;;;;;;;6.60;6.03;;;;;;;;;;5119308;28;20217;-63
2023/06/12 02:25:12;;;;;;;6.72;6.22;;;;;;;;;;5118579;28;20203;-63
2023/06/12 02:27:40;;;;;;;6.50;6.00;;;;;;;;;;5118586;28;20211;-63
2023/06/12 02:30:09;;;;;;;6.53;6.03;;;;;;;;;;5118639;28;20203;-63
2023/06/12 02:32:37;;;;;;;6.80;6.30;;;;;;;;;;5118622;28;20610;-63
2023/06/12 02:35:08;;;;;;;6.35;5.85;;;;;;;;;;5118678;28;20207;-63
2023/06/12 02:37:36;;;;;;;7.10;6.57;;;;;;;;;;5118281;28;20203;-63
2023/06/12 02:40:05;;;;;;;6.60;6.10;;;;;;;;;;5118244;28;20202;-63
2023/06/12 02:42:34;;;;;;;6.50;6.10;;;;;;;;;;5118228;28;20249;-63
2023/06/12 02:45:02;;;;;;;6.80;6.20;;;;;;;;;;5118295;28;20256;-63
2023/06/12 02:47:29;;;;;;;6.95;6.35;;;;;;;;;;5118485;28;20214;-63
2023/06/12 02:49:57;;;;;;;6.90;6.40;;;;;;;;;;5118673;28;20213;-63
2023/06/12 02:52:26;;;;;;;6.88;6.38;;;;;;;;;;5118277;28;20194;-63
2023/06/12 02:54:54;;;;;;;6.47;6.07;;;;;;;;;;5117996;28;20234;-63
2023/06/12 02:57:22;;;;;;;6.25;5.75;;;;;;;;;;5118616;28;20262;-63
2023/06/12 02:59:51;;;;;;;6.82;6.10;;;;;;;;;;5118125;28;20207;-63
2023/06/12 03:02:19;;;;;;;6.38;5.90;;;;;;;;;;5117775;28;20213;-63
2023/06/12 03:04:47;;;;;;;6.60;6.00;;;;;;;;;;5117955;28;20224;-63
2023/06/12 03:07:16;;;;;;;6.70;6.25;;;;;;;;;;5118468;28;20542;-63
2023/06/12 03:09:45;;;;;;;6.78;6.18;;;;;;;;;;5118058;28;20587;-63
2023/06/12 03:12:13;;;;;;;6.68;6.28;;;;;;;;;;5118141;28;20203;-63
2023/06/12 03:14:42;;;;;;;6.45;6.05;;;;;;;;;;5117287;28;20295;-63
2023/06/12 03:17:11;;;;;;;6.82;6.22;;;;;;;;;;5118138;28;20218;-63
2023/06/12 03:19:39;;;;;;;6.65;6.15;;;;;;;;;;5117985;28;20710;-63
2023/06/12 03:22:07;;;;;;;6.72;6.22;;;;;;;;;;5117924;28;20210;-63
2023/06/12 03:24:37;;;;;;;6.70;6.20;;;;;;;;;;5118122;28;20211;-63
2023/06/12 03:27:05;;;;;;;6.72;6.05;;;;;;;;;;5117613;28;20199;-63
2023/06/12 03:29:33;;;;;;;6.75;6.25;;;;;;;;;;5117677;28;20210;-62
2023/06/12 03:32:01;;;;;;;6.47;5.97;;;;;;;;;;5117828;28;20510;-62
2023/06/12 03:34:31;;;;;;;6.50;6.00;;;;;;;;;;5117613;28;20295;-62
2023/06/12 03:36:59;;;;;;;6.22;5.72;;;;;;;;;;5117873;28;20211;-63
2023/06/12 03:39:26;;;;;;;6.13;5.72;;;;;;;;;;5117547;28;20205;-63
2023/06/12 03:41:55;;;;;;;5.82;5.35;;;;;;;;;;5117835;28;20233;-63
2023/06/12 03:44:23;;;;;;;6.40;5.95;;;;;;;;;;5117902;28;20207;-63
2023/06/12 03:46:50;;;;;;;6.55;6.05;;;;;;;;;;5117582;28;20230;-63
2023/06/12 03:49:18;;;;;;;6.35;5.85;;;;;;;;;;5116894;28;20226;-63
2023/06/12 03:51:47;;;;;;;6.57;6.07;;;;;;;;;;5117268;28;20247;-63
2023/06/12 03:54:14;;;;;;;7.20;6.60;;;;;;;;;;5117063;28;20275;-63
2023/06/12 03:56:42;;;;;;;6.57;6.18;;;;;;;;;;5117146;28;20203;-63
2023/06/12 03:59:10;;;;;;;6.45;6.00;;;;;;;;;;5117080;28;20502;-63
2023/06/12 04:01:38;;;;;;;6.63;6.22;;;;;;;;;;5117204;28;20203;-63
2023/06/12 04:04:06;;;;;;;6.78;6.22;;;;;;;;;;5117141;28;20259;-63
2023/06/12 04:06:40;;;;;;;6.15;5.75;;;;;;;;;;5117398;28;20579;-65
2023/06/12 04:09:09;;;;;;;5.80;5.40;;;;;;;;;;5117558;28;20583;-63
2023/06/12 04:11:40;;;;;;;6.13;5.72;;;;;;;;;;5117368;28;20202;-63
2023/06/12 04:14:07;;;;;;;6.55;6.13;;;;;;;;;;5117872;28;20607;-63
2023/06/12 04:16:35;;;;;;;6.35;5.95;;;;;;;;;;5120996;28;20206;-63
2023/06/12 04:19:03;;;;;;;6.43;5.97;;;;;;;;;;5121039;28;20199;-63
2023/06/12 04:21:32;;;;;;;6.60;6.10;;;;;;;;;;5121093;28;20242;-63
2023/06/12 04:24:00;;;;;;;6.03;5.63;;;;;;;;;;5120571;28;20199;-63
2023/06/12 04:26:29;;;;;;;6.60;6.05;;;;;;;;;;5120626;28;20682;-63
2023/06/12 04:28:57;;;;;;;6.22;5.82;;;;;;;;;;5120683;28;20229;-63
2023/06/12 04:31:26;;;;;;;6.93;6.32;;;;;;;;;;5120394;28;20249;-63
2023/06/12 04:33:54;;;;;;;6.38;5.97;;;;;;;;;;5119678;28;20223;-63
2023/06/12 04:36:22;;;;;;;6.85;6.35;;;;;;;;;;5120088;28;20234;-63
2023/06/12 04:38:51;;;;;;;6.38;5.97;;;;;;;;;;5119675;28;20217;-63
2023/06/12 04:41:19;;;;;;;6.53;6.13;;;;;;;;;;5119892;28;20255;-63
2023/06/12 04:43:49;;;;;;;6.30;5.90;;;;;;;;;;5119320;28;20195;-63
2023/06/12 04:46:17;;;;;;;6.50;6.00;;;;;;;;;;5119471;27;20230;-63
2023/06/12 04:48:45;;;;;;;6.70;6.10;;;;;;;;;;5118512;28;20203;-63
2023/06/12 04:51:15;;;;;;;6.63;6.13;;;;;;;;;;5118796;28;20207;-63
2023/06/12 04:53:43;;;;;;;5.97;5.57;;;;;;;;;;5118793;28;20226;-63
2023/06/12 04:56:12;;;;;;;6.60;6.10;;;;;;;;;;5117496;28;20199;-63
2023/06/12 04:58:41;;;;;;;6.72;6.20;;;;;;;;;;5118259;28;20546;-63
2023/06/12 05:01:11;;;;;;;6.50;6.10;;;;;;;;;;5117669;28;20232;-63
2023/06/12 05:03:40;;;;;;;6.75;6.22;;;;;;;;;;5117838;28;20209;-63
2023/06/12 05:06:08;;;;;;;6.97;6.47;;;;;;;;;;5118248;28;20221;-63
2023/06/12 05:08:36;;;;;;;6.70;6.13;;;;;;;;;;5117589;27;20203;-63
2023/06/12 05:11:03;;;;;;;6.68;6.18;;;;;;;;;;5116107;28;20851;-64
2023/06/12 05:13:31;;;;;;;6.93;6.40;;;;;;;;;;5116875;28;20210;-63
2023/06/12 05:15:59;;;;;;;6.75;6.18;;;;;;;;;;5117067;28;20211;-63
2023/06/12 05:18:27;;;;;;;6.65;6.15;;;;;;;;;;5117305;28;20243;-63
2023/06/12 05:20:58;;;;;;;6.60;6.10;;;;;;;;;;5117916;28;20657;-63
2023/06/12 05:23:25;;;;;;;6.47;5.97;;;;;;;;;;5117968;28;20210;-63
2023/06/12 05:25:53;;;;;;;6.57;6.07;;;;;;;;;;5116410;28;20496;-63
2023/06/12 05:28:20;;;;;;;6.93;6.50;;;;;;;;;;5117614;28;20233;-63
2023/06/12 05:30:48;;;;;;;6.40;5.90;;;;;;;;;;5117275;27;20203;-63
2023/06/12 05:33:16;;;;;;;6.63;6.13;;;;;;;;;;5117297;28;20559;-63
2023/06/12 05:35:45;;;;;;;6.35;5.95;;;;;;;;;;5116334;28;20284;-63
2023/06/12 05:38:12;;;;;;;7.10;6.60;;;;;;;;;;5117815;28;20629;-63
2023/06/12 05:40:39;;;;;;;6.80;6.30;;;;;;;;;;5117312;28;20199;-63
2023/06/12 05:43:07;;;;;;;6.78;6.28;;;;;;;;;;5116676;28;20203;-63
2023/06/12 05:45:35;;;;;;;6.53;6.13;;;;;;;;;;5115862;28;20222;-63
2023/06/12 05:48:02;;;;;;;7.05;6.55;;;;;;;;;;5116698;28;20203;-63
2023/06/12 05:50:29;;;;;;;6.95;6.45;;;;;;;;;;5116285;28;20210;-63
2023/06/12 05:52:58;;;;;;;8.02;6.70;;;;;;;;;;5116764;28;20215;-63
2023/06/12 05:55:26;;;;;;;6.75;6.35;;;;;;;;;;5117003;27;20234;-63
2023/06/12 05:57:53;;;;;;;7.57;6.88;;;;;;;;;;5116833;28;20203;-63
2023/06/12 06:00:22;;;;;;;7.20;6.65;;;;;;;;;;5116428;28;20199;-63
2023/06/12 06:02:49;;;;;;;7.50;6.80;;;;;;;;;;5115488;28;20203;-63
2023/06/12 06:05:17;;;;;;;7.32;6.72;;;;;;;;;;5116563;28;20605;-63
2023/06/12 06:07:44;;;;;;;6.10;5.60;;;;;;;;;;5116461;28;20230;-63
2023/06/12 06:10:13;;;;;;;6.50;6.00;;;;;;;;;;5116691;28;20507;-63
2023/06/12 06:12:40;;;;;;;6.82;5.97;;;;;;;;;;5116659;28;20598;-63
2023/06/12 06:15:09;;;;;;;6.40;5.80;;;;;;;;;;5116205;28;20223;-63
2023/06/12 06:17:36;;;;;;;6.53;6.03;;;;;;;;;;5116629;28;20786;-63
2023/06/12 06:20:05;;;;;;;6.13;5.63;;;;;;;;;;5117064;27;20199;-63
2023/06/12 06:22:33;;;;;;;5.85;5.35;;;;;;;;;;5117488;28;20206;-63
2023/06/12 06:25:00;;;;;;;6.82;6.22;;;;;;;;;;5116793;28;20199;-63
2023/06/12 06:27:29;;;;;;;6.47;5.85;;;;;;;;;;5116842;28;20203;-63
2023/06/12 06:29:56;;;;;;;6.47;5.97;;;;;;;;;;5117358;28;20206;-63
2023/06/12 06:32:23;;;;;;;6.18;5.68;;;;;;;;;;5116360;28;20203;-63
2023/06/12 06:34:51;;;;;;;6.90;6.15;;;;;;;;;;5117229;28;20222;-63
2023/06/12 06:37:18;;;;;;;6.32;5.82;;;;;;;;;;5117225;28;20736;-63
2023/06/12 06:39:47;;;;;;;6.65;6.07;;;;;;;;;;5116607;28;20215;-63
2023/06/12 06:42:15;;;;;;;6.80;6.30;;;;;;;;;;5116605;28;20761;-63
2023/06/12 06:44:43;;;;;;;6.47;5.97;;;;;;;;;;5117476;28;20199;-63
2023/06/12 06:47:11;;;;;;;6.70;6.20;;;;;;;;;;5116750;28;20227;-62
2023/06/12 06:49:39;;;;;;;6.32;5.82;;;;;;;;;;5116534;28;20725;-62
2023/06/12 06:52:06;;;;;;;6.88;6.28;;;;;;;;;;5116390;28;20214;-62
2023/06/12 06:54:34;;;;;;;6.38;5.88;;;;;;;;;;5116325;28;20503;-63
2023/06/12 06:57:01;;;;;;;6.93;6.43;;;;;;;;;;5116386;28;20195;-63
2023/06/12 06:59:28;;;;;;;6.28;5.78;;;;;;;;;;5116962;28;20225;-63
2023/06/12 07:01:57;;;;;;;6.88;6.38;;;;;;;;;;5116805;28;20625;-63
2023/06/12 07:04:25;;;;;;;6.40;5.93;;;;;;;;;;5115520;28;20199;-63
2023/06/12 07:06:52;;;;;;;6.60;6.10;;;;;;;;;;5116314;28;20203;-63
2023/06/12 07:09:19;;;;;;;6.35;5.85;;;;;;;;;;5116403;28;20210;-63
2023/06/12 07:11:47;;;;;;;5.68;5.20;;;;;;;;;;5115945;28;20221;-63
2023/06/12 07:14:14;;;;;;;6.55;6.05;;;;;;;;;;5115712;28;20206;-62
2023/06/12 07:16:42;;;;;;;6.15;5.72;;;;;;;;;;5117117;28;20203;-63
2023/06/12 07:19:10;;;;;;;6.32;5.90;;;;;;;;;;5115411;28;20527;-62
2023/06/12 07:21:38;;;;;;;6.00;5.50;;;;;;;;;;5116025;28;20598;-62
2023/06/12 07:24:06;;;;;;;6.30;5.80;;;;;;;;;;5115711;28;20341;-62
2023/06/12 07:26:33;;;;;;;6.40;5.90;;;;;;;;;;5115959;28;20284;-63
2023/06/12 07:29:01;;;;;;;6.38;5.88;;;;;;;;;;5116013;28;20214;-63
2023/06/12 07:31:28;;;;;;;6.32;5.82;;;;;;;;;;5116493;28;20195;-63
2023/06/12 07:33:55;;;;;;;6.05;5.55;;;;;;;;;;5116203;28;20203;-63
2023/06/12 07:36:24;;;;;;;6.30;5.80;;;;;;;;;;5115921;28;20230;-63
2023/06/12 07:38:51;;;;;;;6.50;6.00;;;;;;;;;;5115452;28;20203;-63
2023/06/12 07:41:19;;;;;;;5.90;5.40;;;;;;;;;;5115637;28;20207;-63
2023/06/12 07:43:46;;;;;;;5.70;5.30;;;;;;;;;;5115499;28;20210;-62
2023/06/12 07:46:15;;;;;;;5.95;5.45;;;;;;;;;;5114821;28;20233;-62
2023/06/12 07:48:43;;;;;;;5.80;5.38;;;;;;;;;;5115414;28;20206;-63
2023/06/12 07:51:10;;;;;;;6.30;5.80;;;;;;;;;;5119134;28;20692;-63
2023/06/12 07:53:39;;;;;;;5.78;5.30;;;;;;;;;;5119052;28;20194;-62
2023/06/12 07:56:07;;;;;;;5.78;5.38;;;;;;;;;;5119453;28;20226;-63
2023/06/12 07:58:37;;;;;;;5.53;5.13;;;;;;;;;;5119653;28;20211;-63
2023/06/12 08:01:05;;;;;;;5.72;5.32;;;;;;;;;;5119925;28;20644;-63
2023/06/12 08:03:38;;;;;;;5.90;5.40;;;;;;;;;;5120326;28;20267;-63
2023/06/12 08:06:07;;;;;;;6.15;5.65;;;;;;;;;;5119014;28;20205;-63
2023/06/12 08:08:42;;;;;;;5.93;5.43;;;;;;;;;;5119562;28;20271;-62
2023/06/12 08:11:09;;;;;;;5.90;5.50;;;;;;;;;;5119010;28;20209;-62
2023/06/12 08:13:36;;;;;;;5.85;5.45;;;;;;;;;;5118909;28;20206;-63
2023/06/12 08:16:04;;;;;;;5.93;5.43;;;;;;;;;;5119400;28;20222;-63
2023/06/12 08:18:31;;;;;;;5.53;5.13;;;;;;;;;;5119498;28;20222;-62
2023/06/12 08:20:59;;;;;;;6.57;6.07;;;;;;;;;;5119311;28;20203;-62
2023/06/12 08:23:26;;;;;;;5.60;5.15;;;;;;;;;;5118998;28;20203;-62
2023/06/12 08:25:55;;;;;;;5.60;5.20;;;;;;;;;;5118957;27;20199;-62
2023/06/12 08:28:22;;;;;;;5.93;5.47;;;;;;;;;;5119272;28;20214;-63
2023/06/12 08:30:52;;;;;;;5.35;4.95;;;;;;;;;;5119252;28;20210;-63
2023/06/12 08:33:20;;;;;;;5.70;5.20;;;;;;;;;;5119248;28;20202;-63
2023/06/12 08:35:47;;;;;;;5.60;5.20;;;;;;;;;;5118569;28;20230;-63
2023/06/12 08:38:15;;;;;;;5.50;5.00;;;;;;;;;;5118938;28;20516;-63
2023/06/12 08:40:42;;;;;;;5.30;4.90;;;;;;;;;;5120056;28;20279;-63
2023/06/12 08:43:11;;;;;;;5.47;5.07;;;;;;;;;;5118813;28;20199;-63
2023/06/12 08:45:43;;;;;;;5.35;4.95;;;;;;;;;;5117740;28;20344;-63
2023/06/12 08:48:11;;;;;;;5.32;4.93;;;;;;;;;;5117430;28;20277;-63
2023/06/12 08:50:39;;;;;;;5.70;5.20;;;;;;;;;;5117648;28;20214;-62
2023/06/12 08:53:07;;;;;;;5.30;4.80;;;;;;;;;;5118177;28;20203;-63
2023/06/12 08:55:39;;;;;;;5.72;5.32;;;;;;;;;;5118862;28;20222;-63
2023/06/12 08:58:07;;;;;;;5.40;4.88;;;;;;;;;;5119170;27;20268;-63
2023/06/12 09:00:35;;;;;;;5.35;4.95;;;;;;;;;;5116953;28;20195;-62
2023/06/12 09:03:05;;;;;;;5.18;4.68;;;;;;;;;;5118535;28;20211;-63
2023/06/12 09:05:34;;;;;;;5.20;4.80;;;;;;;;;;5118106;28;20667;-63
2023/06/12 09:08:02;;;;;;;5.40;4.90;;;;;;;;;;5118130;28;20264;-63
2023/06/12 09:10:31;;;;;;;4.95;4.63;;;;;;;;;;5117977;28;20234;-63
2023/06/12 09:12:59;;;;;;;5.03;4.63;;;;;;;;;;5117370;27;20242;-63
2023/06/12 09:15:27;;;;;;;5.32;4.82;;;;;;;;;;5116736;28;20234;-62
2023/06/12 09:17:56;;;;;;;4.88;4.47;;;;;;;;;;5117587;27;20530;-63
2023/06/12 09:20:26;;;;;;;5.15;4.68;;;;;;;;;;5117846;28;20203;-62
2023/06/12 09:23:00;;;;;;;5.22;4.82;;;;;;;;;;5119079;28;20256;-62
2023/06/12 09:25:28;;;;;;;5.57;5.10;;;;;;;;;;5119815;28;20518;-62
2023/06/12 09:27:55;;;;;;;5.18;4.80;;;;;;;;;;5118785;28;20210;-62
2023/06/12 09:30:23;;;;;;;5.10;4.70;;;;;;;;;;5119228;28;20581;-63
2023/06/12 09:32:52;;;;;;;5.55;5.07;;;;;;;;;;5118518;28;20202;-63
2023/06/12 09:35:21;;;;;;;5.13;4.72;;;;;;;;;;5118321;28;20226;-63
2023/06/12 09:37:50;;;;;;;5.30;4.90;;;;;;;;;;5118257;28;20757;-63
2023/06/12 09:40:18;;;;;;;5.93;4.68;;;;;;;;;;5118462;28;20493;-63
2023/06/12 09:42:46;;;;;;;5.50;5.10;;;;;;;;;;5117457;28;20214;-63
2023/06/12 09:45:14;;;;;;;4.70;4.40;;;;;;;;;;5117150;28;20226;-63
2023/06/12 09:47:45;;;;;;;5.32;4.82;;;;;;;;;;5116647;28;20199;-63
2023/06/12 09:50:13;;;;;;;5.00;4.60;;;;;;;;;;5117252;28;20256;-63
2023/06/12 09:52:43;;;;;;;5.40;4.90;;;;;;;;;;5116780;28;20203;-63
2023/06/12 09:55:12;;;;;;;5.50;5.00;;;;;;;;;;5117565;28;20210;-63
2023/06/12 09:57:41;;;;;;;5.43;5.03;;;;;;;;;;5118023;28;20669;-63
2023/06/12 10:00:11;;;;;;;5.20;4.80;;;;;;;;;;5117163;28;20646;-63
2023/06/12 10:02:41;;;;;;;5.20;4.80;;;;;;;;;;5116950;28;20238;-63
2023/06/12 10:05:16;;;;;;;5.35;4.95;;;;;;;;;;5116973;28;20249;-63
2023/06/12 10:07:48;;;;;;;5.70;4.75;;;;;;;;;;5116244;28;20208;-63
2023/06/12 10:10:17;;;;;;;5.05;4.65;;;;;;;;;;5116461;28;20209;-63
2023/06/12 10:12:45;;;;;;;5.50;5.03;;;;;;;;;;5115649;28;20778;-63
2023/06/12 10:15:13;;;;;;;4.60;4.20;;;;;;;;;;5115619;28;20202;-63
2023/06/12 10:17:41;;;;;;;5.47;4.75;;;;;;;;;;5115655;28;20264;-63
2023/06/12 10:20:10;;;;;;;4.90;4.55;;;;;;;;;;5116395;28;20211;-63
2023/06/12 10:22:37;;;;;;;5.22;4.88;;;;;;;;;;5116316;28;20195;-63
2023/06/12 10:25:07;;;;;;;5.43;4.95;;;;;;;;;;5115877;28;20210;-63
2023/06/12 10:27:36;;;;;;;5.20;4.80;;;;;;;;;;5116137;27;20567;-63
2023/06/12 10:30:04;;;;;;;5.00;4.60;;;;;;;;;;5116418;28;20474;-63
2023/06/12 10:32:32;;;;;;;5.30;4.80;;;;;;;;;;5115566;28;20229;-63
2023/06/12 10:35:01;;;;;;;5.18;4.68;;;;;;;;;;5115740;28;20206;-63
2023/06/12 10:37:30;;;;;;;4.82;4.43;;;;;;;;;;5115583;28;20223;-63
2023/06/12 10:40:10;;;;;;;4.88;4.50;;;;;;;;;;5115254;28;20299;-63
2023/06/12 10:42:44;;;;;;;4.82;4.53;;;;;;;;;;5115640;28;20267;-63
2023/06/12 10:45:19;;;;;;;5.03;4.57;;;;;;;;;;5115883;28;20580;-63
2023/06/12 10:48:14;;;;;;;5.10;4.70;;;;;;;;;;5115731;28;20489;-63
2023/06/12 10:50:44;;;;;;;5.15;4.65;;;;;;;;;;5078796;28;20268;-63
2023/06/12 10:53:14;;;;;;;4.65;4.25;;;;;;;;;;5115042;28;20225;-63
2023/06/12 10:55:43;;;;;;;4.80;4.40;;;;;;;;;;5115231;28;20237;-63
2023/06/12 10:58:12;;;;;;;4.22;3.92;;;;;;;;;;5115252;28;20213;-63
2023/06/12 11:00:45;;;;;;;4.68;4.22;;;;;;;;;;5115684;28;20248;-63
2023/06/12 11:03:13;;;;;;;4.90;4.30;;;;;;;;;;5115265;28;20563;-63
2023/06/12 11:05:47;;;;;;;4.55;4.15;;;;;;;;;;5115108;28;20718;-62
2023/06/12 11:08:14;;;;;;;4.57;4.28;;;;;;;;;;5114936;28;20234;-63
2023/06/12 11:10:43;;;;;;;4.78;4.38;;;;;;;;;;5115792;28;20621;-63
2023/06/12 11:13:10;;;;;;;4.53;4.22;;;;;;;;;;5114891;28;20207;-63
2023/06/12 11:15:44;;;;;;;5.15;4.65;;;;;;;;;;5115484;28;20195;-63
2023/06/12 11:18:13;;;;;;;4.53;4.20;;;;;;;;;;5115502;28;20475;-63
2023/06/12 11:20:40;;;;;;;4.25;3.85;;;;;;;;;;5115265;28;20202;-62
2023/06/12 11:23:07;;;;;;;4.38;4.07;;;;;;;;;;5115275;28;20211;-63
2023/06/12 11:25:35;;;;;;;4.60;4.20;;;;;;;;;;5114900;28;20214;-63
2023/06/12 11:28:04;;;;;;;4.63;4.22;;;;;;;;;;5114949;28;20202;-62
2023/06/12 11:30:32;;;;;;;4.32;4.03;;;;;;;;;;5115121;28;20203;-63
2023/06/12 11:32:59;;;;;;;4.60;4.20;;;;;;;;;;5114122;28;20211;-63
2023/06/12 11:35:26;;;;;;;4.63;4.28;;;;;;;;;;5114772;28;20213;-63
2023/06/12 11:37:54;;;;;;;4.97;4.57;;;;;;;;;;5115197;28;20199;-63
2023/06/12 11:40:21;;;;;;;4.50;4.07;;;;;;;;;;5114770;28;20202;-63
2023/06/12 11:42:49;;;;;;;4.65;4.30;;;;;;;;;;5113925;28;20206;-63
2023/06/12 11:45:19;;;;;;;4.50;4.10;;;;;;;;;;5114534;28;20203;-63
2023/06/12 11:47:47;;;;;;;4.20;3.90;;;;;;;;;;5115109;28;20264;-63
2023/06/12 11:50:15;;;;;;;4.88;4.47;;;;;;;;;;5114131;28;20202;-62
2023/06/12 11:52:43;;;;;;;4.45;4.15;;;;;;;;;;5115735;28;20587;-62
2023/06/12 11:55:11;;;;;;;3.90;3.70;;;;;;;;;;5115244;28;20214;-62
2023/06/12 11:57:39;;;;;;;4.30;4.00;;;;;;;;;;5115086;28;20218;-62
2023/06/12 12:00:11;;;;;;;4.10;3.80;;;;;;;;;;5115199;28;20214;-62
2023/06/12 12:02:42;;;;;;;4.32;4.00;;;;;;;;;;5114655;28;20305;-63
2023/06/12 12:05:11;;;;;;;4.43;4.10;;;;;;;;;;5114743;28;20575;-63
2023/06/12 12:07:39;;;;;;;4.32;4.03;;;;;;;;;;5114656;28;20199;-63
2023/06/12 12:10:07;;;;;;;4.70;4.30;;;;;;;;;;5114619;28;20287;-63
2023/06/12 12:12:42;;;;;;;4.90;4.50;;;;;;;;;;5113194;28;20203;-62
2023/06/12 12:15:10;;;;;;;4.85;4.47;;;;;;;;;;5114232;28;20202;-62
2023/06/12 12:17:38;;;;;;;4.97;4.57;;;;;;;;;;5114440;28;20222;-62
2023/06/12 12:20:08;;;;;;;4.38;4.05;;;;;;;;;;5113934;28;20203;-62
2023/06/12 12:22:40;;;;;;;4.43;4.13;;;;;;;;;;5114319;28;20234;-62
2023/06/12 12:25:08;;;;;;;4.70;4.40;;;;;;;;;;5113152;28;20235;-62
2023/06/12 12:27:38;;;;;;;5.03;4.63;;;;;;;;;;5113063;28;20207;-62
2023/06/12 12:30:05;;;;;;;4.93;4.53;;;;;;;;;;5113685;28;20209;-62
2023/06/12 12:32:33;;;;;;;4.70;4.40;;;;;;;;;;5113254;28;20293;-62
2023/06/12 12:35:00;;;;;;;4.82;4.43;;;;;;;;;;5114304;28;20203;-62
2023/06/12 12:37:29;;;;;;;5.55;4.38;;;;;;;;;;5117624;28;20219;-62
2023/06/12 12:39:56;;;;;;;4.80;4.50;;;;;;;;;;5117688;28;20217;-62
2023/06/12 12:42:24;;;;;;;4.63;4.25;;;;;;;;;;5117238;28;20262;-62
2023/06/12 12:44:52;;;;;;;4.32;4.03;;;;;;;;;;5117502;28;20195;-62
2023/06/12 12:47:20;;;;;;;4.97;4.45;;;;;;;;;;5117488;28;20506;-62
2023/06/12 12:49:47;;;;;;;4.65;4.25;;;;;;;;;;5116724;28;20578;-62
2023/06/12 12:52:15;;;;;;;5.00;4.57;;;;;;;;;;5117274;28;20202;-62
2023/06/12 12:54:46;;;;;;;4.70;4.30;;;;;;;;;;5117722;28;20692;-62
2023/06/12 12:57:14;;;;;;;4.38;4.07;;;;;;;;;;5116595;28;20314;-62
2023/06/12 12:59:43;;;;;;;4.95;4.55;;;;;;;;;;5117255;28;20199;-62
2023/06/12 13:02:10;;;;;;;4.72;4.32;;;;;;;;;;5116950;28;20579;-62
2023/06/12 13:04:38;;;;;;;4.60;4.20;;;;;;;;;;5117031;28;20673;-62
2023/06/12 13:07:06;;;;;;;4.65;4.25;;;;;;;;;;5116664;28;20485;-62
2023/06/12 13:09:33;;;;;;;4.30;4.00;;;;;;;;;;5116529;28;20874;-62
2023/06/12 13:12:02;;;;;;;4.18;3.78;;;;;;;;;;5116921;28;20210;-62
2023/06/12 13:14:30;;;;;;;5.05;4.65;;;;;;;;;;5116216;28;20199;-63
2023/06/12 13:16:57;;;;;;;4.38;3.97;;;;;;;;;;5116432;28;20227;-62
2023/06/12 13:19:24;;;;;;;4.40;4.10;;;;;;;;;;5116458;28;20215;-62
2023/06/12 13:21:52;;;;;;;4.40;4.00;;;;;;;;;;5117127;28;20817;-62
2023/06/12 13:24:19;;;;;;;4.90;4.50;;;;;;;;;;5116654;28;20194;-62
2023/06/12 13:26:47;;;;;;;4.30;4.00;;;;;;;;;;5116353;27;20287;-62
2023/06/12 13:29:18;;;;;;;4.53;4.10;;;;;;;;;;5116843;28;20210;-63
2023/06/12 13:31:45;;;;;;;4.07;3.78;;;;;;;;;;5116731;28;20641;-62
2023/06/12 13:34:13;;;;;;;4.78;4.32;;;;;;;;;;5116920;28;20203;-63
2023/06/12 13:36:40;;;;;;;4.97;4.00;;;;;;;;;;5115526;27;20336;-63
2023/06/12 13:39:08;;;;;;;4.65;4.25;;;;;;;;;;5115949;28;20195;-63
2023/06/12 13:41:35;;;;;;;4.70;4.40;;;;;;;;;;5116144;28;20715;-63
2023/06/12 13:44:03;;;;;;;4.82;4.43;;;;;;;;;;5115843;28;20203;-62
2023/06/12 13:46:33;;;;;;;4.32;4.00;;;;;;;;;;5115688;28;20329;-63
2023/06/12 13:49:02;;;;;;;4.60;4.20;;;;;;;;;;5114938;28;20207;-63
2023/06/12 13:51:34;;;;;;;4.13;3.83;;;;;;;;;;5115688;28;20202;-62
2023/06/12 13:54:02;;;;;;;4.25;3.95;;;;;;;;;;5115364;28;20225;-62
2023/06/12 13:56:30;;;;;;;4.95;4.00;;;;;;;;;;5116130;28;20202;-63
2023/06/12 13:58:57;;;;;;;4.20;3.90;;;;;;;;;;5116317;28;20560;-63
2023/06/12 14:01:24;;;;;;;4.78;4.38;;;;;;;;;;5116598;28;20213;-62
2023/06/12 14:03:53;;;;;;;4.10;3.80;;;;;;;;;;5115746;28;20211;-63
2023/06/12 14:06:22;;;;;;;4.57;4.28;;;;;;;;;;5115428;28;20203;-63
2023/06/12 14:08:50;;;;;;;5.13;4.72;;;;;;;;;;5114435;28;20234;-62
2023/06/12 14:11:18;;;;;;;4.43;4.13;;;;;;;;;;5115710;28;20214;-63
2023/06/12 14:13:46;;;;;;;4.47;4.10;;;;;;;;;;5115454;28;20203;-63
2023/06/12 14:16:13;;;;;;;4.63;4.25;;;;;;;;;;5114895;28;20260;-63
2023/06/12 14:18:41;;;;;;;4.47;4.18;;;;;;;;;;5114654;28;20521;-63
2023/06/12 14:21:11;;;;;;;4.22;3.92;;;;;;;;;;5115230;28;20626;-63
2023/06/12 14:23:44;;;;;;;4.18;3.88;;;;;;;;;;5115341;28;20203;-62
2023/06/12 14:26:11;;;;;;;4.35;4.05;;;;;;;;;;5115615;28;20211;-63
2023/06/12 14:28:39;;;;;;;4.63;4.22;;;;;;;;;;5116265;28;20199;-63
2023/06/12 14:31:06;;;;;;;4.40;4.10;;;;;;;;;;5115917;28;20202;-62
2023/06/12 14:33:34;;;;;;;4.50;4.20;;;;;;;;;;5115252;28;20207;-62
2023/06/12 14:36:01;;;;;;;4.18;3.88;;;;;;;;;;5115282;28;20213;-63
2023/06/12 14:38:30;;;;;;;4.18;3.88;;;;;;;;;;5114651;28;20244;-63
2023/06/12 14:40:57;;;;;;;4.18;3.88;;;;;;;;;;5116028;28;20272;-64
2023/06/12 14:43:24;;;;;;;3.92;3.63;;;;;;;;;;5115260;28;20199;-64
2023/06/12 14:45:52;;;;;;;4.60;4.20;;;;;;;;;;5115195;28;20256;-64
2023/06/12 14:48:19;;;;;;;4.18;3.88;;;;;;;;;;5116032;28;20274;-63
2023/06/12 14:50:47;;;;;;;4.82;3.88;;;;;;;;;;5115109;28;20285;-63